FDX13 EGNX-EDDM
Flight info
| Callsign | FDX13 |
|---|---|
| Flight time | 2h 6m |
| Altitude | 36000 |
| Route | SAPCO UY53 DTY P166 BANTO P155 SIVDA P137 REDFA DCT TACHA DCT NIGUG DCT HMM DCT NOMKA DCT SODRO T703 LULAR T105 LANDU LANDU2B |
| Aircraft | B77L/H-SDE1E2E3FGHIJ2J3J4J5M1RWXY/LB1D1 |
Departure
| Time | 2026-05-07 08:13 |
|---|---|
| Airport | East Midlands Airport (EGNX) |
Arrival
| Time | 2026-05-07 10:19 |
|---|---|
| Airport | Munich Airport (EDDM) |
| Time | Latitude | Longitude | Altitude | Speed | Heading |
|---|---|---|---|---|---|
| 2026-05-07 07:51 | 52.82842 | -1.31743 | 301 ft | 0 kts | 184° |
| 2026-05-07 08:05 | 52.82844 | -1.31743 | 301 ft | 4 kts | 187° |
| 2026-05-07 08:06 | 52.82852 | -1.31745 | 301 ft | 4 kts | 163° |
| 2026-05-07 08:06 | 52.82871 | -1.31762 | 301 ft | 4 kts | 124° |
| 2026-05-07 08:06 | 52.82881 | -1.31799 | 301 ft | 4 kts | 97° |
| 2026-05-07 08:06 | 52.82882 | -1.31832 | 301 ft | 1 kts | 88° |
| 2026-05-07 08:07 | 52.82882 | -1.31838 | 301 ft | 0 kts | 88° |
| 2026-05-07 08:09 | 52.82882 | -1.31837 | 301 ft | 1 kts | 88° |
| 2026-05-07 08:09 | 52.82899 | -1.31720 | 304 ft | 12 kts | 37° |
| 2026-05-07 08:09 | 52.82953 | -1.31623 | 304 ft | 12 kts | 79° |
| 2026-05-07 08:09 | 52.82954 | -1.31479 | 303 ft | 13 kts | 88° |
| 2026-05-07 08:10 | 52.82958 | -1.31282 | 300 ft | 22 kts | 88° |
| 2026-05-07 08:10 | 52.82963 | -1.30982 | 300 ft | 28 kts | 88° |
| 2026-05-07 08:10 | 52.82996 | -1.30730 | 298 ft | 21 kts | 47° |
| 2026-05-07 08:10 | 52.83070 | -1.30686 | 294 ft | 0 kts | 360° |
| 2026-05-07 08:11 | 52.83078 | -1.30686 | 294 ft | 2 kts | 360° |
| 2026-05-07 08:11 | 52.83098 | -1.30686 | 297 ft | 4 kts | 360° |
| 2026-05-07 08:11 | 52.83130 | -1.30702 | 296 ft | 6 kts | 312° |
| 2026-05-07 08:11 | 52.83133 | -1.30739 | 292 ft | 0 kts | 275° |
| 2026-05-07 08:12 | 52.83133 | -1.30912 | 297 ft | 48 kts | 269° |
| 2026-05-07 08:12 | 52.83107 | -1.31970 | 306 ft | 133 kts | 268° |
| 2026-05-07 08:12 | 52.83060 | -1.33898 | 432 ft | 186 kts | 268° |
| 2026-05-07 08:13 | 52.83083 | -1.36039 | 1348 ft | 182 kts | 269° |
| 2026-05-07 08:13 | 52.82997 | -1.38053 | 2271 ft | 176 kts | 254° |
| 2026-05-07 08:13 | 52.82314 | -1.39806 | 2518 ft | 193 kts | 219° |
| 2026-05-07 08:13 | 52.81235 | -1.41375 | 2762 ft | 218 kts | 221° |
| 2026-05-07 08:14 | 52.80061 | -1.43164 | 3042 ft | 246 kts | 222° |
| 2026-05-07 08:14 | 52.78779 | -1.45127 | 3741 ft | 255 kts | 222° |
| 2026-05-07 08:14 | 52.77458 | -1.47141 | 4520 ft | 260 kts | 220° |
| 2026-05-07 08:14 | 52.75875 | -1.48600 | 5257 ft | 264 kts | 192° |
| 2026-05-07 08:15 | 52.74044 | -1.48603 | 6143 ft | 266 kts | 166° |
| 2026-05-07 08:15 | 52.72296 | -1.47549 | 6832 ft | 272 kts | 158° |
| 2026-05-07 08:15 | 52.70550 | -1.46359 | 7538 ft | 278 kts | 158° |
| 2026-05-07 08:15 | 52.68740 | -1.45139 | 8318 ft | 282 kts | 158° |
| 2026-05-07 08:16 | 52.66910 | -1.43914 | 8941 ft | 285 kts | 158° |
| 2026-05-07 08:16 | 52.65047 | -1.42678 | 9075 ft | 291 kts | 159° |
| 2026-05-07 08:16 | 52.63154 | -1.41472 | 9078 ft | 290 kts | 159° |
| 2026-05-07 08:16 | 52.61277 | -1.40290 | 9068 ft | 287 kts | 159° |
| 2026-05-07 08:17 | 52.59417 | -1.39115 | 9064 ft | 285 kts | 159° |
| 2026-05-07 08:17 | 52.57583 | -1.37959 | 9073 ft | 285 kts | 159° |
| 2026-05-07 08:17 | 52.55721 | -1.36787 | 9077 ft | 285 kts | 159° |
| 2026-05-07 08:17 | 52.53867 | -1.35617 | 9080 ft | 286 kts | 159° |
| 2026-05-07 08:18 | 52.52013 | -1.34382 | 9467 ft | 288 kts | 158° |
| 2026-05-07 08:18 | 52.50168 | -1.33124 | 10239 ft | 291 kts | 158° |
| 2026-05-07 08:18 | 52.48256 | -1.31818 | 10726 ft | 308 kts | 158° |
| 2026-05-07 08:18 | 52.46190 | -1.30411 | 10924 ft | 334 kts | 158° |
| 2026-05-07 08:19 | 52.43955 | -1.28893 | 11146 ft | 359 kts | 158° |
| 2026-05-07 08:19 | 52.41588 | -1.27285 | 11654 ft | 374 kts | 158° |
| 2026-05-07 08:19 | 52.39182 | -1.25655 | 12397 ft | 382 kts | 158° |
| 2026-05-07 08:19 | 52.36703 | -1.23979 | 13281 ft | 385 kts | 158° |
| 2026-05-07 08:20 | 52.34201 | -1.22288 | 14178 ft | 389 kts | 158° |
| 2026-05-07 08:20 | 52.31710 | -1.20606 | 15023 ft | 393 kts | 158° |
| 2026-05-07 08:20 | 52.29165 | -1.18892 | 15832 ft | 397 kts | 159° |
| 2026-05-07 08:20 | 52.26591 | -1.17162 | 16601 ft | 402 kts | 159° |
| 2026-05-07 08:21 | 52.24079 | -1.15158 | 17199 ft | 405 kts | 146° |
| 2026-05-07 08:21 | 52.22079 | -1.11859 | 17799 ft | 415 kts | 124° |
| 2026-05-07 08:21 | 52.20890 | -1.07616 | 18524 ft | 420 kts | 105° |
| 2026-05-07 08:21 | 52.20590 | -1.02882 | 19302 ft | 423 kts | 87° |
| 2026-05-07 08:22 | 52.21201 | -0.98202 | 19992 ft | 423 kts | 68° |
| 2026-05-07 08:22 | 52.22405 | -0.93786 | 20540 ft | 429 kts | 65° |
| 2026-05-07 08:22 | 52.23629 | -0.89317 | 21144 ft | 433 kts | 66° |
| 2026-05-07 08:22 | 52.24789 | -0.84759 | 21816 ft | 436 kts | 70° |
| 2026-05-07 08:23 | 52.25713 | -0.80036 | 22489 ft | 438 kts | 73° |
| 2026-05-07 08:23 | 52.26566 | -0.75246 | 23084 ft | 442 kts | 73° |
| 2026-05-07 08:23 | 52.27421 | -0.70382 | 23649 ft | 446 kts | 73° |
| 2026-05-07 08:23 | 52.28285 | -0.65499 | 24240 ft | 449 kts | 73° |
| 2026-05-07 08:24 | 52.29160 | -0.60592 | 24842 ft | 450 kts | 73° |
| 2026-05-07 08:24 | 52.30031 | -0.55730 | 25428 ft | 452 kts | 73° |
| 2026-05-07 08:24 | 52.30918 | -0.50779 | 25954 ft | 455 kts | 73° |
| 2026-05-07 08:24 | 52.31808 | -0.45802 | 26424 ft | 459 kts | 73° |
| 2026-05-07 08:25 | 52.32708 | -0.40756 | 26911 ft | 462 kts | 73° |
| 2026-05-07 08:25 | 52.33611 | -0.35683 | 27391 ft | 465 kts | 73° |
| 2026-05-07 08:25 | 52.34518 | -0.30568 | 27853 ft | 468 kts | 73° |
| 2026-05-07 08:25 | 52.35269 | -0.25435 | 28292 ft | 471 kts | 79° |
| 2026-05-07 08:26 | 52.35831 | -0.14708 | 29097 ft | 477 kts | 90° |
| 2026-05-07 08:26 | 52.35742 | -0.09262 | 29503 ft | 479 kts | 91° |
| 2026-05-07 08:26 | 52.35659 | -0.03786 | 29901 ft | 480 kts | 90° |
| 2026-05-07 08:27 | 52.35592 | 0.01677 | 30386 ft | 480 kts | 91° |
| 2026-05-07 08:27 | 52.35318 | 0.07107 | 30953 ft | 476 kts | 97° |
| 2026-05-07 08:27 | 52.34855 | 0.12455 | 31506 ft | 473 kts | 97° |
| 2026-05-07 08:27 | 52.34370 | 0.17718 | 31914 ft | 473 kts | 98° |
| 2026-05-07 08:28 | 52.33870 | 0.23056 | 32314 ft | 473 kts | 97° |
| 2026-05-07 08:28 | 52.33373 | 0.28393 | 32747 ft | 472 kts | 97° |
| 2026-05-07 08:28 | 52.32883 | 0.33700 | 33181 ft | 471 kts | 97° |
| 2026-05-07 08:28 | 52.32399 | 0.38990 | 33567 ft | 470 kts | 97° |
| 2026-05-07 08:29 | 52.31922 | 0.44235 | 33929 ft | 469 kts | 97° |
| 2026-05-07 08:29 | 52.31439 | 0.49540 | 34284 ft | 469 kts | 97° |
| 2026-05-07 08:29 | 52.30962 | 0.54755 | 34543 ft | 471 kts | 97° |
| 2026-05-07 08:29 | 52.30639 | 0.58285 | 34700 ft | 472 kts | 98° |
| 2026-05-07 08:30 | 52.29985 | 0.65382 | 35065 ft | 473 kts | 98° |
| 2026-05-07 08:30 | 52.29656 | 0.68935 | 35258 ft | 473 kts | 98° |
| 2026-05-07 08:30 | 52.29159 | 0.74281 | 35516 ft | 475 kts | 98° |
| 2026-05-07 08:30 | 52.28659 | 0.79625 | 35766 ft | 476 kts | 98° |
| 2026-05-07 08:31 | 52.28161 | 0.84914 | 35976 ft | 477 kts | 98° |
| 2026-05-07 08:31 | 52.27651 | 0.90296 | 36029 ft | 482 kts | 98° |
| 2026-05-07 08:31 | 52.26617 | 1.01143 | 36079 ft | 482 kts | 98° |
| 2026-05-07 08:32 | 52.25579 | 1.11897 | 36077 ft | 477 kts | 98° |
| 2026-05-07 08:32 | 52.24544 | 1.22575 | 36083 ft | 476 kts | 98° |
| 2026-05-07 08:33 | 52.23497 | 1.33224 | 36085 ft | 477 kts | 99° |
| 2026-05-07 08:33 | 52.22434 | 1.43938 | 36086 ft | 478 kts | 99° |
| 2026-05-07 08:34 | 52.21367 | 1.54595 | 36085 ft | 479 kts | 99° |
| 2026-05-07 08:34 | 52.20279 | 1.65364 | 36087 ft | 481 kts | 99° |
| 2026-05-07 08:35 | 52.19185 | 1.76102 | 36084 ft | 482 kts | 99° |
| 2026-05-07 08:35 | 52.18072 | 1.86908 | 36085 ft | 483 kts | 99° |
| 2026-05-07 08:36 | 52.16949 | 1.97709 | 36085 ft | 484 kts | 99° |
| 2026-05-07 08:36 | 52.15814 | 2.08527 | 36085 ft | 485 kts | 99° |
| 2026-05-07 08:37 | 52.14664 | 2.19390 | 36083 ft | 485 kts | 99° |
| 2026-05-07 08:37 | 52.13517 | 2.30146 | 36083 ft | 485 kts | 99° |
| 2026-05-07 08:38 | 52.12362 | 2.40994 | 36082 ft | 485 kts | 97° |
| 2026-05-07 08:38 | 52.12362 | 2.51931 | 36089 ft | 483 kts | 82° |
| 2026-05-07 08:39 | 52.13949 | 2.62499 | 36094 ft | 481 kts | 72° |
| 2026-05-07 08:39 | 52.16011 | 2.72892 | 36081 ft | 482 kts | 71° |
| 2026-05-07 08:40 | 52.18024 | 2.83302 | 36073 ft | 482 kts | 72° |
| 2026-05-07 08:40 | 52.19975 | 2.93690 | 36073 ft | 482 kts | 72° |
| 2026-05-07 08:41 | 52.21915 | 3.04133 | 36074 ft | 482 kts | 72° |
| 2026-05-07 08:41 | 52.23859 | 3.14626 | 36074 ft | 482 kts | 73° |
| 2026-05-07 08:42 | 52.25013 | 3.25408 | 36074 ft | 483 kts | 88° |
| 2026-05-07 08:42 | 52.24572 | 3.36262 | 36079 ft | 483 kts | 99° |
| 2026-05-07 08:43 | 52.23463 | 3.47139 | 36076 ft | 485 kts | 99° |
| 2026-05-07 08:43 | 52.22338 | 3.57995 | 36075 ft | 486 kts | 99° |
| 2026-05-07 08:44 | 52.21251 | 3.68834 | 36070 ft | 487 kts | 99° |
| 2026-05-07 08:44 | 52.20169 | 3.79755 | 36075 ft | 488 kts | 99° |
| 2026-05-07 08:45 | 52.19077 | 3.90699 | 36074 ft | 489 kts | 99° |
| 2026-05-07 08:45 | 52.17975 | 4.01623 | 36075 ft | 489 kts | 99° |
| 2026-05-07 08:46 | 52.16861 | 4.12528 | 36077 ft | 489 kts | 99° |
| 2026-05-07 08:46 | 52.15732 | 4.23475 | 36072 ft | 489 kts | 100° |
| 2026-05-07 08:47 | 52.14595 | 4.34400 | 36074 ft | 489 kts | 100° |
| 2026-05-07 08:47 | 52.13457 | 4.45237 | 36072 ft | 488 kts | 100° |
| 2026-05-07 08:48 | 52.12301 | 4.56159 | 36073 ft | 487 kts | 100° |
| 2026-05-07 08:48 | 52.11138 | 4.67022 | 36073 ft | 487 kts | 100° |
| 2026-05-07 08:49 | 52.09972 | 4.77828 | 36072 ft | 486 kts | 100° |
| 2026-05-07 08:49 | 52.08794 | 4.88657 | 36078 ft | 486 kts | 100° |
| 2026-05-07 08:50 | 52.07604 | 4.99483 | 36076 ft | 485 kts | 100° |
| 2026-05-07 08:50 | 52.06406 | 5.10281 | 36066 ft | 485 kts | 100° |
| 2026-05-07 08:51 | 52.05206 | 5.21042 | 36065 ft | 485 kts | 100° |
| 2026-05-07 08:51 | 52.04103 | 5.31855 | 36065 ft | 485 kts | 97° |
| 2026-05-07 08:52 | 52.03361 | 5.42718 | 36063 ft | 484 kts | 96° |
| 2026-05-07 08:52 | 52.02657 | 5.53599 | 36055 ft | 484 kts | 96° |
| 2026-05-07 08:53 | 52.01928 | 5.64433 | 36053 ft | 484 kts | 97° |
| 2026-05-07 08:53 | 52.01169 | 5.75317 | 36050 ft | 484 kts | 97° |
| 2026-05-07 08:54 | 52.00397 | 5.86138 | 36043 ft | 485 kts | 97° |
| 2026-05-07 08:54 | 51.99614 | 5.97031 | 36053 ft | 485 kts | 97° |
| 2026-05-07 08:55 | 51.98821 | 6.07892 | 36044 ft | 485 kts | 97° |
| 2026-05-07 08:55 | 51.98014 | 6.18792 | 36044 ft | 485 kts | 97° |
| 2026-05-07 08:56 | 51.97207 | 6.29590 | 36044 ft | 485 kts | 97° |
| 2026-05-07 08:56 | 51.96383 | 6.40457 | 36043 ft | 485 kts | 97° |
| 2026-05-07 08:57 | 51.95553 | 6.51255 | 36047 ft | 485 kts | 97° |
| 2026-05-07 08:57 | 51.94707 | 6.62141 | 36054 ft | 485 kts | 97° |
| 2026-05-07 08:58 | 51.93860 | 6.72936 | 36055 ft | 486 kts | 98° |
| 2026-05-07 08:58 | 51.92997 | 6.83790 | 36046 ft | 486 kts | 98° |
| 2026-05-07 08:59 | 51.92120 | 6.94664 | 36043 ft | 486 kts | 98° |
| 2026-05-07 08:59 | 51.91235 | 7.05545 | 36034 ft | 486 kts | 98° |
| 2026-05-07 09:00 | 51.90341 | 7.16356 | 36025 ft | 486 kts | 98° |
| 2026-05-07 09:00 | 51.89435 | 7.27230 | 36026 ft | 486 kts | 98° |
| 2026-05-07 09:01 | 51.88520 | 7.38079 | 36028 ft | 486 kts | 98° |
| 2026-05-07 09:01 | 51.87601 | 7.48858 | 36035 ft | 484 kts | 98° |
| 2026-05-07 09:02 | 51.86671 | 7.59655 | 36037 ft | 484 kts | 98° |
| 2026-05-07 09:02 | 51.85730 | 7.70381 | 36034 ft | 483 kts | 99° |
| 2026-05-07 09:03 | 51.84397 | 7.81059 | 36035 ft | 483 kts | 103° |
| 2026-05-07 09:03 | 51.82935 | 7.91613 | 36038 ft | 483 kts | 103° |
| 2026-05-07 09:04 | 51.81459 | 8.02254 | 36037 ft | 484 kts | 103° |
| 2026-05-07 09:04 | 51.80004 | 8.12860 | 36037 ft | 484 kts | 103° |
| 2026-05-07 09:05 | 51.78541 | 8.23503 | 36029 ft | 485 kts | 103° |
| 2026-05-07 09:05 | 51.77072 | 8.34089 | 36027 ft | 486 kts | 103° |
| 2026-05-07 09:06 | 51.75586 | 8.44736 | 36028 ft | 485 kts | 103° |
| 2026-05-07 09:06 | 51.74090 | 8.55382 | 36022 ft | 485 kts | 104° |
| 2026-05-07 09:07 | 51.72592 | 8.65950 | 36018 ft | 485 kts | 104° |
| 2026-05-07 09:07 | 51.71077 | 8.76570 | 36018 ft | 485 kts | 104° |
| 2026-05-07 09:08 | 51.69553 | 8.87177 | 36020 ft | 485 kts | 104° |
| 2026-05-07 09:08 | 51.68018 | 8.97794 | 36018 ft | 486 kts | 104° |
| 2026-05-07 09:09 | 51.66482 | 9.08339 | 36019 ft | 486 kts | 104° |
| 2026-05-07 09:09 | 51.64925 | 9.18962 | 36011 ft | 486 kts | 104° |
| 2026-05-07 09:10 | 51.63365 | 9.29531 | 36009 ft | 486 kts | 105° |
| 2026-05-07 09:10 | 51.61793 | 9.40104 | 35995 ft | 486 kts | 105° |
| 2026-05-07 09:11 | 51.60212 | 9.50662 | 35996 ft | 486 kts | 105° |
| 2026-05-07 09:11 | 51.58619 | 9.61244 | 35999 ft | 485 kts | 105° |
| 2026-05-07 09:12 | 51.57027 | 9.71744 | 35996 ft | 485 kts | 105° |
| 2026-05-07 09:12 | 51.55420 | 9.82263 | 35999 ft | 485 kts | 105° |
| 2026-05-07 09:13 | 51.53804 | 9.92778 | 36002 ft | 484 kts | 105° |
| 2026-05-07 09:13 | 51.52448 | 10.01556 | 36003 ft | 484 kts | 105° |
| 2026-05-07 09:14 | 51.50818 | 10.12054 | 35995 ft | 485 kts | 106° |
| 2026-05-07 09:14 | 51.49175 | 10.22551 | 35999 ft | 485 kts | 106° |
| 2026-05-07 09:15 | 51.47533 | 10.32994 | 35993 ft | 485 kts | 106° |
| 2026-05-07 09:15 | 51.45829 | 10.43461 | 35983 ft | 483 kts | 111° |
| 2026-05-07 09:16 | 51.44468 | 10.48383 | 35989 ft | 479 kts | 122° |
| 2026-05-07 09:16 | 51.42633 | 10.52764 | 35998 ft | 476 kts | 131° |
| 2026-05-07 09:16 | 51.37886 | 10.60072 | 35993 ft | 472 kts | 142° |
| 2026-05-07 09:17 | 51.32838 | 10.66839 | 35986 ft | 473 kts | 142° |
| 2026-05-07 09:17 | 51.27816 | 10.73624 | 35976 ft | 475 kts | 142° |
| 2026-05-07 09:18 | 51.22780 | 10.80506 | 35970 ft | 475 kts | 142° |
| 2026-05-07 09:18 | 51.17791 | 10.87334 | 35974 ft | 475 kts | 142° |
| 2026-05-07 09:19 | 51.12755 | 10.94206 | 35971 ft | 475 kts | 142° |
| 2026-05-07 09:19 | 51.07718 | 11.01059 | 35973 ft | 475 kts | 142° |
| 2026-05-07 09:20 | 51.02704 | 11.07850 | 35963 ft | 475 kts | 142° |
| 2026-05-07 09:20 | 50.97675 | 11.14644 | 35964 ft | 475 kts | 142° |
| 2026-05-07 09:21 | 50.92637 | 11.21434 | 35960 ft | 474 kts | 142° |
| 2026-05-07 09:21 | 50.87609 | 11.28191 | 35957 ft | 474 kts | 142° |
| 2026-05-07 09:22 | 50.82597 | 11.34903 | 35963 ft | 473 kts | 142° |
| 2026-05-07 09:22 | 50.77573 | 11.41614 | 35962 ft | 472 kts | 142° |
| 2026-05-07 09:23 | 50.72575 | 11.48273 | 35969 ft | 471 kts | 143° |
| 2026-05-07 09:23 | 50.67540 | 11.54961 | 35959 ft | 472 kts | 143° |
| 2026-05-07 09:24 | 50.62512 | 11.61617 | 35954 ft | 472 kts | 143° |
| 2026-05-07 09:24 | 50.57505 | 11.68231 | 35948 ft | 472 kts | 143° |
| 2026-05-07 09:25 | 50.52463 | 11.74876 | 35943 ft | 472 kts | 143° |
| 2026-05-07 09:25 | 50.47341 | 11.81229 | 35941 ft | 469 kts | 150° |
| 2026-05-07 09:26 | 50.41653 | 11.86126 | 35941 ft | 464 kts | 159° |
| 2026-05-07 09:26 | 50.35695 | 11.90076 | 35945 ft | 464 kts | 160° |
| 2026-05-07 09:27 | 50.29748 | 11.94049 | 35936 ft | 464 kts | 159° |
| 2026-05-07 09:28 | 50.20863 | 12.00048 | 35935 ft | 464 kts | 160° |
| 2026-05-07 09:28 | 50.14968 | 12.04001 | 35938 ft | 464 kts | 160° |
| 2026-05-07 09:29 | 50.09039 | 12.07969 | 35941 ft | 463 kts | 160° |
| 2026-05-07 09:29 | 50.03113 | 12.11926 | 35948 ft | 464 kts | 160° |
| 2026-05-07 09:30 | 49.97181 | 12.15881 | 35941 ft | 463 kts | 160° |
| 2026-05-07 09:30 | 49.91300 | 12.19796 | 35384 ft | 458 kts | 160° |
| 2026-05-07 09:30 | 49.88373 | 12.21739 | 34750 ft | 456 kts | 160° |
| 2026-05-07 09:31 | 49.85482 | 12.23655 | 34001 ft | 457 kts | 160° |
| 2026-05-07 09:31 | 49.82556 | 12.25591 | 33215 ft | 457 kts | 160° |
| 2026-05-07 09:31 | 49.79619 | 12.27519 | 32434 ft | 458 kts | 160° |
| 2026-05-07 09:31 | 49.76692 | 12.29431 | 31878 ft | 452 kts | 161° |
| 2026-05-07 09:32 | 49.73840 | 12.31439 | 31318 ft | 450 kts | 156° |
| 2026-05-07 09:32 | 49.71117 | 12.33822 | 30778 ft | 447 kts | 152° |
| 2026-05-07 09:32 | 49.68560 | 12.36550 | 30242 ft | 446 kts | 147° |
| 2026-05-07 09:32 | 49.66133 | 12.39437 | 29729 ft | 441 kts | 147° |
| 2026-05-07 09:33 | 49.63708 | 12.42313 | 29184 ft | 436 kts | 147° |
| 2026-05-07 09:33 | 49.61307 | 12.45139 | 28662 ft | 432 kts | 147° |
| 2026-05-07 09:33 | 49.58923 | 12.47928 | 28121 ft | 428 kts | 147° |
| 2026-05-07 09:33 | 49.56584 | 12.50652 | 27606 ft | 424 kts | 147° |
| 2026-05-07 09:34 | 49.54237 | 12.53378 | 27077 ft | 420 kts | 147° |
| 2026-05-07 09:34 | 49.51914 | 12.56076 | 26571 ft | 416 kts | 147° |
| 2026-05-07 09:34 | 49.49612 | 12.58746 | 26067 ft | 412 kts | 147° |
| 2026-05-07 09:34 | 49.47324 | 12.61394 | 25571 ft | 409 kts | 147° |
| 2026-05-07 09:35 | 49.45057 | 12.64013 | 25062 ft | 406 kts | 147° |
| 2026-05-07 09:35 | 49.42878 | 12.66686 | 24576 ft | 405 kts | 142° |
| 2026-05-07 09:35 | 49.40836 | 12.69653 | 24097 ft | 400 kts | 141° |
| 2026-05-07 09:35 | 49.38594 | 12.72016 | 23602 ft | 386 kts | 160° |
| 2026-05-07 09:36 | 49.36038 | 12.73010 | 23162 ft | 376 kts | 178° |
| 2026-05-07 09:36 | 49.33445 | 12.72953 | 22708 ft | 371 kts | 188° |
| 2026-05-07 09:36 | 49.30960 | 12.72037 | 22215 ft | 365 kts | 203° |
| 2026-05-07 09:36 | 49.28682 | 12.70364 | 21797 ft | 361 kts | 206° |
| 2026-05-07 09:37 | 49.26419 | 12.68668 | 21350 ft | 361 kts | 206° |
| 2026-05-07 09:37 | 49.24173 | 12.67038 | 20900 ft | 362 kts | 205° |
| 2026-05-07 09:37 | 49.21865 | 12.65390 | 20450 ft | 369 kts | 205° |
| 2026-05-07 09:37 | 49.19515 | 12.63719 | 19985 ft | 373 kts | 205° |
| 2026-05-07 09:38 | 49.17179 | 12.62055 | 19511 ft | 372 kts | 205° |
| 2026-05-07 09:38 | 49.14834 | 12.60388 | 19036 ft | 370 kts | 205° |
| 2026-05-07 09:38 | 49.12509 | 12.58736 | 18576 ft | 367 kts | 205° |
| 2026-05-07 09:38 | 49.10196 | 12.57095 | 18117 ft | 364 kts | 205° |
| 2026-05-07 09:39 | 49.07925 | 12.55483 | 17652 ft | 361 kts | 205° |
| 2026-05-07 09:39 | 49.05651 | 12.53872 | 17209 ft | 358 kts | 205° |
| 2026-05-07 09:39 | 49.03395 | 12.52275 | 16755 ft | 356 kts | 205° |
| 2026-05-07 09:39 | 49.01162 | 12.50682 | 16309 ft | 353 kts | 206° |
| 2026-05-07 09:40 | 48.98946 | 12.49098 | 15861 ft | 350 kts | 206° |
| 2026-05-07 09:40 | 48.96743 | 12.47523 | 15415 ft | 348 kts | 206° |
| 2026-05-07 09:40 | 48.94586 | 12.45982 | 14974 ft | 345 kts | 206° |
| 2026-05-07 09:40 | 48.92419 | 12.44436 | 14536 ft | 342 kts | 206° |
| 2026-05-07 09:41 | 48.90273 | 12.42907 | 14100 ft | 339 kts | 206° |
| 2026-05-07 09:41 | 48.88147 | 12.41394 | 13674 ft | 336 kts | 206° |
| 2026-05-07 09:41 | 48.86040 | 12.39896 | 13241 ft | 333 kts | 206° |
| 2026-05-07 09:41 | 48.83945 | 12.38408 | 12821 ft | 330 kts | 206° |
| 2026-05-07 09:42 | 48.81882 | 12.36945 | 12402 ft | 328 kts | 206° |
| 2026-05-07 09:42 | 48.79799 | 12.35489 | 11978 ft | 326 kts | 205° |
| 2026-05-07 09:42 | 48.77664 | 12.34328 | 11579 ft | 326 kts | 198° |
| 2026-05-07 09:42 | 48.75472 | 12.33470 | 11165 ft | 324 kts | 196° |
| 2026-05-07 09:43 | 48.73323 | 12.32654 | 10830 ft | 320 kts | 196° |
| 2026-05-07 09:43 | 48.71259 | 12.31863 | 10664 ft | 292 kts | 196° |
| 2026-05-07 09:43 | 48.69381 | 12.31136 | 10541 ft | 268 kts | 197° |
| 2026-05-07 09:43 | 48.67608 | 12.30454 | 10445 ft | 257 kts | 196° |
| 2026-05-07 09:44 | 48.65896 | 12.29804 | 10351 ft | 255 kts | 196° |
| 2026-05-07 09:44 | 48.64173 | 12.29145 | 10328 ft | 256 kts | 196° |
| 2026-05-07 09:44 | 48.62455 | 12.28488 | 10147 ft | 252 kts | 196° |
| 2026-05-07 09:44 | 48.60910 | 12.27491 | 9924 ft | 234 kts | 221° |
| 2026-05-07 09:45 | 48.59940 | 12.25654 | 9708 ft | 222 kts | 243° |
| 2026-05-07 09:45 | 48.59446 | 12.23504 | 9652 ft | 212 kts | 260° |
| 2026-05-07 09:45 | 48.59309 | 12.21330 | 9713 ft | 209 kts | 265° |
| 2026-05-07 09:45 | 48.59236 | 12.19125 | 9728 ft | 211 kts | 265° |
| 2026-05-07 09:46 | 48.59169 | 12.16909 | 9722 ft | 211 kts | 266° |
| 2026-05-07 09:46 | 48.59101 | 12.14696 | 9718 ft | 211 kts | 265° |
| 2026-05-07 09:46 | 48.59029 | 12.12478 | 9692 ft | 212 kts | 265° |
| 2026-05-07 09:46 | 48.58956 | 12.10240 | 9655 ft | 214 kts | 265° |
| 2026-05-07 09:47 | 48.58882 | 12.07995 | 9614 ft | 213 kts | 265° |
| 2026-05-07 09:47 | 48.58804 | 12.05779 | 9575 ft | 214 kts | 265° |
| 2026-05-07 09:47 | 48.58725 | 12.03522 | 9523 ft | 215 kts | 265° |
| 2026-05-07 09:47 | 48.58644 | 12.01264 | 9476 ft | 214 kts | 265° |
| 2026-05-07 09:48 | 48.58561 | 11.99012 | 9427 ft | 213 kts | 265° |
| 2026-05-07 09:48 | 48.58478 | 11.96803 | 9389 ft | 211 kts | 265° |
| 2026-05-07 09:48 | 48.58396 | 11.94588 | 9335 ft | 209 kts | 265° |
| 2026-05-07 09:48 | 48.58314 | 11.92426 | 9288 ft | 207 kts | 265° |
| 2026-05-07 09:49 | 48.58232 | 11.90254 | 9237 ft | 206 kts | 265° |
| 2026-05-07 09:49 | 48.58151 | 11.88109 | 9229 ft | 203 kts | 265° |
| 2026-05-07 09:49 | 48.58068 | 11.85968 | 9240 ft | 206 kts | 265° |
| 2026-05-07 09:49 | 48.57983 | 11.83814 | 9251 ft | 209 kts | 265° |
| 2026-05-07 09:50 | 48.57897 | 11.81606 | 9251 ft | 211 kts | 265° |
| 2026-05-07 09:50 | 48.57811 | 11.79398 | 9252 ft | 210 kts | 265° |
| 2026-05-07 09:50 | 48.57722 | 11.77187 | 9251 ft | 211 kts | 265° |
| 2026-05-07 09:50 | 48.57637 | 11.74965 | 9261 ft | 211 kts | 265° |
| 2026-05-07 09:51 | 48.57550 | 11.72774 | 9256 ft | 210 kts | 265° |
| 2026-05-07 09:51 | 48.57461 | 11.70563 | 9242 ft | 210 kts | 265° |
| 2026-05-07 09:51 | 48.57374 | 11.68379 | 9249 ft | 208 kts | 265° |
| 2026-05-07 09:51 | 48.57285 | 11.66188 | 9239 ft | 208 kts | 265° |
| 2026-05-07 09:52 | 48.57196 | 11.64016 | 9235 ft | 206 kts | 265° |
| 2026-05-07 09:52 | 48.57014 | 11.61898 | 9211 ft | 201 kts | 247° |
| 2026-05-07 09:52 | 48.56180 | 11.60285 | 9213 ft | 202 kts | 216° |
| 2026-05-07 09:52 | 48.54872 | 11.59416 | 9226 ft | 211 kts | 193° |
| 2026-05-07 09:53 | 48.53403 | 11.59143 | 9257 ft | 215 kts | 187° |
| 2026-05-07 09:53 | 48.51909 | 11.58975 | 9244 ft | 214 kts | 187° |
| 2026-05-07 09:53 | 48.50414 | 11.58815 | 9253 ft | 214 kts | 187° |
| 2026-05-07 09:53 | 48.48946 | 11.58652 | 9241 ft | 214 kts | 187° |
| 2026-05-07 09:54 | 48.47459 | 11.58479 | 9246 ft | 213 kts | 187° |
| 2026-05-07 09:54 | 48.45976 | 11.58302 | 9247 ft | 213 kts | 187° |
| 2026-05-07 09:54 | 48.44519 | 11.58129 | 9242 ft | 211 kts | 187° |
| 2026-05-07 09:54 | 48.43055 | 11.57948 | 9239 ft | 209 kts | 187° |
| 2026-05-07 09:55 | 48.41608 | 11.57768 | 9232 ft | 208 kts | 187° |
| 2026-05-07 09:55 | 48.40169 | 11.57587 | 9226 ft | 207 kts | 187° |
| 2026-05-07 09:55 | 48.38735 | 11.57405 | 9228 ft | 206 kts | 187° |
| 2026-05-07 09:55 | 48.37319 | 11.57226 | 9224 ft | 207 kts | 187° |
| 2026-05-07 09:56 | 48.35881 | 11.57043 | 9226 ft | 207 kts | 187° |
| 2026-05-07 09:56 | 48.34436 | 11.56859 | 9226 ft | 208 kts | 187° |
| 2026-05-07 09:56 | 48.32989 | 11.56675 | 9232 ft | 208 kts | 187° |
| 2026-05-07 09:56 | 48.31552 | 11.56489 | 9236 ft | 210 kts | 187° |
| 2026-05-07 09:57 | 48.30092 | 11.56303 | 9238 ft | 211 kts | 187° |
| 2026-05-07 09:57 | 48.29113 | 11.56179 | 9244 ft | 212 kts | 187° |
| 2026-05-07 09:57 | 48.27142 | 11.55928 | 9245 ft | 213 kts | 186° |
| 2026-05-07 09:57 | 48.26161 | 11.55989 | 9217 ft | 215 kts | 168° |
| 2026-05-07 09:58 | 48.24874 | 11.57121 | 9212 ft | 219 kts | 133° |
| 2026-05-07 09:58 | 48.24210 | 11.59164 | 9209 ft | 222 kts | 100° |
| 2026-05-07 09:58 | 48.24202 | 11.61491 | 9235 ft | 226 kts | 86° |
| 2026-05-07 09:58 | 48.24378 | 11.63867 | 9255 ft | 231 kts | 84° |
| 2026-05-07 09:59 | 48.24585 | 11.66277 | 9255 ft | 232 kts | 84° |
| 2026-05-07 09:59 | 48.24787 | 11.68641 | 9242 ft | 231 kts | 84° |
| 2026-05-07 09:59 | 48.24990 | 11.71027 | 9246 ft | 229 kts | 84° |
| 2026-05-07 09:59 | 48.25186 | 11.73397 | 9241 ft | 228 kts | 84° |
| 2026-05-07 10:00 | 48.25378 | 11.75751 | 9234 ft | 227 kts | 84° |
| 2026-05-07 10:00 | 48.25569 | 11.78102 | 9227 ft | 225 kts | 84° |
| 2026-05-07 10:00 | 48.25754 | 11.80413 | 9234 ft | 224 kts | 85° |
| 2026-05-07 10:00 | 48.25937 | 11.82752 | 9233 ft | 224 kts | 85° |
| 2026-05-07 10:01 | 48.26114 | 11.85054 | 9232 ft | 224 kts | 85° |
| 2026-05-07 10:01 | 48.26293 | 11.87378 | 9228 ft | 225 kts | 85° |
| 2026-05-07 10:01 | 48.26471 | 11.89701 | 9232 ft | 224 kts | 85° |
| 2026-05-07 10:01 | 48.26649 | 11.92036 | 9239 ft | 225 kts | 85° |
| 2026-05-07 10:02 | 48.26829 | 11.94384 | 9244 ft | 226 kts | 85° |
| 2026-05-07 10:02 | 48.27007 | 11.96742 | 9246 ft | 228 kts | 85° |
| 2026-05-07 10:02 | 48.27184 | 11.99117 | 9255 ft | 230 kts | 85° |
| 2026-05-07 10:02 | 48.27362 | 12.01513 | 9259 ft | 231 kts | 85° |
| 2026-05-07 10:03 | 48.27542 | 12.03890 | 9258 ft | 231 kts | 85° |
| 2026-05-07 10:03 | 48.27723 | 12.06296 | 9256 ft | 231 kts | 85° |
| 2026-05-07 10:03 | 48.27901 | 12.08700 | 9254 ft | 231 kts | 85° |
| 2026-05-07 10:03 | 48.28078 | 12.11080 | 9252 ft | 229 kts | 85° |
| 2026-05-07 10:04 | 48.28252 | 12.13440 | 9246 ft | 228 kts | 85° |
| 2026-05-07 10:04 | 48.28425 | 12.15776 | 9269 ft | 216 kts | 85° |
| 2026-05-07 10:04 | 48.28584 | 12.17912 | 9218 ft | 201 kts | 85° |
| 2026-05-07 10:04 | 48.28734 | 12.19955 | 9190 ft | 194 kts | 85° |
| 2026-05-07 10:05 | 48.28880 | 12.21976 | 9195 ft | 195 kts | 85° |
| 2026-05-07 10:05 | 48.29028 | 12.24024 | 9213 ft | 198 kts | 85° |
| 2026-05-07 10:05 | 48.29179 | 12.26071 | 9218 ft | 199 kts | 85° |
| 2026-05-07 10:05 | 48.29328 | 12.28151 | 9212 ft | 200 kts | 85° |
| 2026-05-07 10:06 | 48.29479 | 12.30236 | 9217 ft | 200 kts | 85° |
| 2026-05-07 10:06 | 48.29627 | 12.32292 | 9218 ft | 201 kts | 85° |
| 2026-05-07 10:06 | 48.29777 | 12.34387 | 9213 ft | 201 kts | 85° |
| 2026-05-07 10:06 | 48.29928 | 12.36463 | 9217 ft | 201 kts | 85° |
| 2026-05-07 10:07 | 48.30080 | 12.38568 | 9219 ft | 201 kts | 85° |
| 2026-05-07 10:07 | 48.30226 | 12.40632 | 9218 ft | 201 kts | 85° |
| 2026-05-07 10:07 | 48.30661 | 12.42618 | 9034 ft | 204 kts | 50° |
| 2026-05-07 10:07 | 48.31817 | 12.43720 | 8797 ft | 197 kts | 7° |
| 2026-05-07 10:08 | 48.33128 | 12.43484 | 8605 ft | 189 kts | 328° |
| 2026-05-07 10:08 | 48.34083 | 12.42225 | 8427 ft | 185 kts | 301° |
| 2026-05-07 10:08 | 48.34532 | 12.40440 | 8206 ft | 183 kts | 279° |
| 2026-05-07 10:08 | 48.34788 | 12.38558 | 7991 ft | 182 kts | 279° |
| 2026-05-07 10:09 | 48.35038 | 12.36722 | 7750 ft | 176 kts | 280° |
| 2026-05-07 10:09 | 48.35281 | 12.34938 | 7553 ft | 172 kts | 279° |
| 2026-05-07 10:09 | 48.35515 | 12.33208 | 7390 ft | 167 kts | 279° |
| 2026-05-07 10:09 | 48.35737 | 12.31581 | 7181 ft | 150 kts | 279° |
| 2026-05-07 10:10 | 48.35941 | 12.30073 | 7043 ft | 148 kts | 279° |
| 2026-05-07 10:10 | 48.36148 | 12.28547 | 6876 ft | 151 kts | 279° |
| 2026-05-07 10:10 | 48.36358 | 12.27000 | 6687 ft | 150 kts | 279° |
| 2026-05-07 10:10 | 48.36565 | 12.25469 | 6521 ft | 148 kts | 280° |
| 2026-05-07 10:11 | 48.36770 | 12.23963 | 6339 ft | 147 kts | 279° |
| 2026-05-07 10:11 | 48.36970 | 12.22476 | 6177 ft | 146 kts | 280° |
| 2026-05-07 10:11 | 48.37170 | 12.21008 | 6069 ft | 140 kts | 279° |
| 2026-05-07 10:11 | 48.37365 | 12.19575 | 6003 ft | 142 kts | 280° |
| 2026-05-07 10:12 | 48.37567 | 12.18099 | 5934 ft | 144 kts | 280° |
| 2026-05-07 10:12 | 48.37768 | 12.16617 | 5811 ft | 146 kts | 280° |
| 2026-05-07 10:12 | 48.37969 | 12.15126 | 5658 ft | 147 kts | 280° |
| 2026-05-07 10:12 | 48.38173 | 12.13626 | 5480 ft | 144 kts | 280° |
| 2026-05-07 10:13 | 48.38368 | 12.12184 | 5300 ft | 139 kts | 279° |
| 2026-05-07 10:13 | 48.38559 | 12.10765 | 5138 ft | 136 kts | 278° |
| 2026-05-07 10:13 | 48.38621 | 12.09346 | 4987 ft | 139 kts | 270° |
| 2026-05-07 10:13 | 48.38590 | 12.07886 | 4796 ft | 139 kts | 266° |
| 2026-05-07 10:14 | 48.38517 | 12.06439 | 4608 ft | 138 kts | 265° |
| 2026-05-07 10:14 | 48.38426 | 12.05011 | 4430 ft | 137 kts | 264° |
| 2026-05-07 10:14 | 48.38326 | 12.03593 | 4246 ft | 136 kts | 264° |
| 2026-05-07 10:14 | 48.38217 | 12.02170 | 4061 ft | 136 kts | 263° |
| 2026-05-07 10:15 | 48.38113 | 12.00763 | 3889 ft | 136 kts | 264° |
| 2026-05-07 10:15 | 48.38006 | 11.99367 | 3725 ft | 135 kts | 263° |
| 2026-05-07 10:15 | 48.37899 | 11.97965 | 3531 ft | 133 kts | 264° |
| 2026-05-07 10:15 | 48.37793 | 11.96566 | 3367 ft | 134 kts | 263° |
| 2026-05-07 10:16 | 48.37687 | 11.95175 | 3178 ft | 135 kts | 263° |
| 2026-05-07 10:16 | 48.37576 | 11.93777 | 2993 ft | 133 kts | 263° |
| 2026-05-07 10:16 | 48.37474 | 11.92400 | 2821 ft | 135 kts | 264° |
| 2026-05-07 10:16 | 48.37367 | 11.90984 | 2643 ft | 138 kts | 263° |
| 2026-05-07 10:17 | 48.37256 | 11.89526 | 2457 ft | 141 kts | 263° |
| 2026-05-07 10:17 | 48.37143 | 11.88058 | 2262 ft | 142 kts | 264° |
| 2026-05-07 10:17 | 48.37029 | 11.86598 | 2071 ft | 139 kts | 264° |
| 2026-05-07 10:17 | 48.36918 | 11.85140 | 1901 ft | 141 kts | 262° |
| 2026-05-07 10:18 | 48.36809 | 11.83702 | 1709 ft | 138 kts | 262° |
| 2026-05-07 10:18 | 48.36697 | 11.82230 | 1527 ft | 143 kts | 263° |
| 2026-05-07 10:18 | 48.36586 | 11.80799 | 1470 ft | 124 kts | 263° |
| 2026-05-07 10:18 | 48.36508 | 11.79788 | 1468 ft | 70 kts | 263° |
| 2026-05-07 10:19 | 48.36472 | 11.79306 | 1474 ft | 39 kts | 263° |
| 2026-05-07 10:19 | 48.36420 | 11.78939 | 1464 ft | 34 kts | 238° |
| 2026-05-07 10:19 | 48.36277 | 11.78664 | 1462 ft | 32 kts | 235° |
| 2026-05-07 10:19 | 48.36156 | 11.78408 | 1463 ft | 27 kts | 236° |
| 2026-05-07 10:20 | 48.36109 | 11.78138 | 1471 ft | 27 kts | 263° |
| 2026-05-07 10:20 | 48.36085 | 11.77859 | 1471 ft | 27 kts | 263° |
| 2026-05-07 10:20 | 48.36014 | 11.77629 | 1471 ft | 24 kts | 198° |
| 2026-05-07 10:20 | 48.35859 | 11.77700 | 1471 ft | 23 kts | 178° |
| 2026-05-07 10:21 | 48.35748 | 11.77733 | 1470 ft | 2 kts | 183° |
| 2026-05-07 10:21 | 48.35742 | 11.77698 | 1463 ft | 5 kts | 271° |
| 2026-05-07 10:21 | 48.35740 | 11.77651 | 1470 ft | 5 kts | 264° |
| 2026-05-07 10:21 | 48.35737 | 11.77615 | 1470 ft | 0 kts | 264° |